sensor_id;sensor_type;location;lat;lon;timestamp;pressure;altitude;pressure_sealevel;temperature;humidity
13612;BME280;6877;51.436;6.774;2023-05-12T00:01:28;100932.84;;;12.02;100.00
13612;BME280;6877;51.436;6.774;2023-05-12T00:03:54;100931.06;;;12.04;100.00
13612;BME280;6877;51.436;6.774;2023-05-12T00:06:21;100924.91;;;12.04;100.00
13612;BME280;6877;51.436;6.774;2023-05-12T00:08:52;100923.19;;;12.03;100.00
13612;BME280;6877;51.436;6.774;2023-05-12T00:11:18;100916.19;;;12.03;100.00
13612;BME280;6877;51.436;6.774;2023-05-12T00:13:46;100912.63;;;12.06;100.00
13612;BME280;6877;51.436;6.774;2023-05-12T00:16:18;100904.78;;;12.06;100.00
13612;BME280;6877;51.436;6.774;2023-05-12T00:18:44;100905.75;;;12.02;100.00
13612;BME280;6877;51.436;6.774;2023-05-12T00:21:15;100902.25;;;12.01;100.00
13612;BME280;6877;51.436;6.774;2023-05-12T00:23:42;100899.59;;;12.03;100.00
13612;BME280;6877;51.436;6.774;2023-05-12T00:26:13;100890.88;;;12.02;100.00
13612;BME280;6877;51.436;6.774;2023-05-12T00:28:39;100895.25;;;12.02;100.00
13612;BME280;6877;51.436;6.774;2023-05-12T00:31:06;100898.88;;;11.96;100.00
13612;BME280;6877;51.436;6.774;2023-05-12T00:33:32;100883.25;;;11.92;100.00
13612;BME280;6877;51.436;6.774;2023-05-12T00:35:58;100883.19;;;11.93;100.00
13612;BME280;6877;51.436;6.774;2023-05-12T00:38:29;100878.84;;;11.92;100.00
13612;BME280;6877;51.436;6.774;2023-05-12T00:40:55;100878.88;;;11.91;100.00
13612;BME280;6877;51.436;6.774;2023-05-12T00:43:21;100878.09;;;11.87;100.00
13612;BME280;6877;51.436;6.774;2023-05-12T00:45:48;100870.28;;;11.86;100.00
13612;BME280;6877;51.436;6.774;2023-05-12T00:48:14;100875.50;;;11.86;100.00
13612;BME280;6877;51.436;6.774;2023-05-12T00:50:41;100863.28;;;11.85;100.00
13612;BME280;6877;51.436;6.774;2023-05-12T00:53:08;100865.00;;;11.84;100.00
13612;BME280;6877;51.436;6.774;2023-05-12T00:55:35;100859.81;;;11.82;100.00
13612;BME280;6877;51.436;6.774;2023-05-12T00:58:07;100866.78;;;11.82;100.00
13612;BME280;6877;51.436;6.774;2023-05-12T01:00:33;100858.06;;;11.81;100.00
13612;BME280;6877;51.436;6.774;2023-05-12T01:03:00;100861.53;;;11.83;100.00
13612;BME280;6877;51.436;6.774;2023-05-12T01:05:48;100866.78;;;11.82;100.00
13612;BME280;6877;51.436;6.774;2023-05-12T01:08:16;100858.06;;;11.81;100.00
13612;BME280;6877;51.436;6.774;2023-05-12T01:10:45;100859.78;;;11.86;100.00
13612;BME280;6877;51.436;6.774;2023-05-12T01:13:12;100859.72;;;11.87;100.00
13612;BME280;6877;51.436;6.774;2023-05-12T01:15:46;100858.81;;;11.90;100.00
13612;BME280;6877;51.436;6.774;2023-05-12T01:18:19;100850.09;;;11.88;100.00
13612;BME280;6877;51.436;6.774;2023-05-12T01:20:46;100844.78;;;11.91;100.00
13612;BME280;6877;51.436;6.774;2023-05-12T01:23:17;100846.53;;;11.92;100.00
13612;BME280;6877;51.436;6.774;2023-05-12T01:25:49;100841.28;;;11.92;100.00
13612;BME280;6877;51.436;6.774;2023-05-12T01:28:16;100838.66;;;11.92;100.00
13612;BME280;6877;51.436;6.774;2023-05-12T01:30:49;100836.84;;;11.95;100.00
13612;BME280;6877;51.436;6.774;2023-05-12T01:33:20;100844.66;;;11.97;100.00
13612;BME280;6877;51.436;6.774;2023-05-12T01:35:52;100840.25;;;11.97;100.00
13612;BME280;6877;51.436;6.774;2023-05-12T01:38:18;100837.63;;;11.99;100.00
13612;BME280;6877;51.436;6.774;2023-05-12T01:40:50;100841.94;;;12.00;100.00
13612;BME280;6877;51.436;6.774;2023-05-12T01:43:21;100835.72;;;12.04;100.00
13612;BME280;6877;51.436;6.774;2023-05-12T01:45:47;100834.84;;;12.05;100.00
13612;BME280;6877;51.436;6.774;2023-05-12T01:48:14;100836.56;;;12.06;100.00
13612;BME280;6877;51.436;6.774;2023-05-12T01:50:45;100838.22;;;12.10;100.00
13612;BME280;6877;51.436;6.774;2023-05-12T01:53:17;100840.84;;;12.10;100.00
13612;BME280;6877;51.436;6.774;2023-05-12T01:55:43;100839.06;;;12.12;100.00
13612;BME280;6877;51.436;6.774;2023-05-12T01:58:14;100843.31;;;12.16;100.00
13612;BME280;6877;51.436;6.774;2023-05-12T02:00:40;100845.88;;;12.19;100.00
13612;BME280;6877;51.436;6.774;2023-05-12T02:03:07;100837.03;;;12.23;100.00
13612;BME280;6877;51.436;6.774;2023-05-12T02:05:39;100840.47;;;12.25;100.00
13612;BME280;6877;51.436;6.774;2023-05-12T02:08:05;100847.41;;;12.28;100.00
13612;BME280;6877;51.436;6.774;2023-05-12T02:10:32;100847.41;;;12.29;100.00
13612;BME280;6877;51.436;6.774;2023-05-12T02:13:03;100838.63;;;12.31;100.00
13612;BME280;6877;51.436;6.774;2023-05-12T02:15:30;100849.13;;;12.31;100.00
13612;BME280;6877;51.436;6.774;2023-05-12T02:17:56;100844.78;;;12.29;100.00
13612;BME280;6877;51.436;6.774;2023-05-12T02:20:28;100850.81;;;12.32;100.00
13612;BME280;6877;51.436;6.774;2023-05-12T02:22:54;100844.72;;;12.31;100.00
13612;BME280;6877;51.436;6.774;2023-05-12T02:25:21;100851.75;;;12.31;100.00
13612;BME280;6877;51.436;6.774;2023-05-12T02:27:52;100846.44;;;12.32;100.00
13612;BME280;6877;51.436;6.774;2023-05-12T02:30:19;100848.19;;;12.33;100.00
13612;BME280;6877;51.436;6.774;2023-05-12T02:32:45;100850.81;;;12.32;100.00
13612;BME280;6877;51.436;6.774;2023-05-12T02:35:12;100852.56;;;12.33;100.00
13612;BME280;6877;51.436;6.774;2023-05-12T02:37:38;100847.41;;;12.29;100.00
13612;BME280;6877;51.436;6.774;2023-05-12T02:40:05;100851.84;;;12.26;100.00
13612;BME280;6877;51.436;6.774;2023-05-12T02:42:33;100859.81;;;12.21;100.00
13612;BME280;6877;51.436;6.774;2023-05-12T02:45:00;100855.50;;;12.20;100.00
13612;BME280;6877;51.436;6.774;2023-05-12T02:47:33;100853.78;;;12.18;100.00
13612;BME280;6877;51.436;6.774;2023-05-12T02:49:59;100861.81;;;12.10;100.00
13612;BME280;6877;51.436;6.774;2023-05-12T02:52:25;100873.34;;;12.04;100.00
13612;BME280;6877;51.436;6.774;2023-05-12T02:54:52;100882.94;;;12.04;100.00
13612;BME280;6877;51.436;6.774;2023-05-12T02:57:23;100877.69;;;12.04;100.00
13612;BME280;6877;51.436;6.774;2023-05-12T02:59:52;100886.47;;;12.04;100.00
13612;BME280;6877;51.436;6.774;2023-05-12T03:02:23;100877.69;;;12.04;100.00
13612;BME280;6877;51.436;6.774;2023-05-12T03:04:49;100882.06;;;12.05;100.00
13612;BME280;6877;51.436;6.774;2023-05-12T03:07:16;100891.69;;;12.04;100.00
13612;BME280;6877;51.436;6.774;2023-05-12T03:09:47;100887.25;;;12.06;100.00
13612;BME280;6877;51.436;6.774;2023-05-12T03:12:13;100884.69;;;12.05;100.00
13612;BME280;6877;51.436;6.774;2023-05-12T03:14:40;100891.72;;;12.03;100.00
13612;BME280;6877;51.436;6.774;2023-05-12T03:17:07;100888.25;;;12.02;100.00
13612;BME280;6877;51.436;6.774;2023-05-12T03:19:39;100890.03;;;12.00;100.00
13612;BME280;6877;51.436;6.774;2023-05-12T03:22:05;100894.47;;;11.97;100.00
13612;BME280;6877;51.436;6.774;2023-05-12T03:24:39;100897.16;;;11.94;100.00
13612;BME280;6877;51.436;6.774;2023-05-12T03:27:11;100890.22;;;11.93;100.00
13612;BME280;6877;51.436;6.774;2023-05-12T03:29:37;100890.28;;;11.90;100.00
13612;BME280;6877;51.436;6.774;2023-05-12T03:32:04;100875.47;;;11.87;100.00
13612;BME280;6877;51.436;6.774;2023-05-12T03:34:31;100885.97;;;11.84;100.00
13612;BME280;6877;51.436;6.774;2023-05-12T03:36:57;100896.53;;;11.82;100.00
13612;BME280;6877;51.436;6.774;2023-05-12T03:39:23;100892.22;;;11.78;100.00
13612;BME280;6877;51.436;6.774;2023-05-12T03:41:50;100901.84;;;11.78;100.00
13612;BME280;6877;51.436;6.774;2023-05-12T03:44:16;100899.28;;;11.75;100.00
13612;BME280;6877;51.436;6.774;2023-05-12T03:46:43;100902.84;;;11.72;100.00
13612;BME280;6877;51.436;6.774;2023-05-12T03:49:10;100904.63;;;11.70;100.00
13612;BME280;6877;51.436;6.774;2023-05-12T03:51:41;100907.25;;;11.70;100.00
13612;BME280;6877;51.436;6.774;2023-05-12T03:54:07;100909.91;;;11.69;100.00
13612;BME280;6877;51.436;6.774;2023-05-12T03:56:34;100910.81;;;11.66;100.00
13612;BME280;6877;51.436;6.774;2023-05-12T03:59:00;100912.59;;;11.66;100.00
13612;BME280;6877;51.436;6.774;2023-05-12T04:01:32;100910.88;;;11.63;100.00
13612;BME280;6877;51.436;6.774;2023-05-12T04:04:03;100918.75;;;11.63;100.00
13612;BME280;6877;51.436;6.774;2023-05-12T04:06:29;100921.38;;;11.63;100.00
13612;BME280;6877;51.436;6.774;2023-05-12T04:08:56;100923.19;;;11.61;100.00
13612;BME280;6877;51.436;6.774;2023-05-12T04:11:28;100929.28;;;11.62;100.00
13612;BME280;6877;51.436;6.774;2023-05-12T04:13:55;100931.03;;;11.61;100.00
13612;BME280;6877;51.436;6.774;2023-05-12T04:16:21;100929.34;;;11.58;100.00
13612;BME280;6877;51.436;6.774;2023-05-12T04:18:48;100931.97;;;11.58;100.00
13612;BME280;6877;51.436;6.774;2023-05-12T04:21:14;100931.09;;;11.58;100.00
13612;BME280;6877;51.436;6.774;2023-05-12T04:23:41;100933.72;;;11.56;100.00
13612;BME280;6877;51.436;6.774;2023-05-12T04:26:07;100945.06;;;11.58;100.00
13612;BME280;6877;51.436;6.774;2023-05-12T04:28:33;100943.34;;;11.57;100.00
13612;BME280;6877;51.436;6.774;2023-05-12T04:31:02;100945.91;;;11.59;100.00
13612;BME280;6877;51.436;6.774;2023-05-12T04:33:31;100946.75;;;11.61;100.00
13612;BME280;6877;51.436;6.774;2023-05-12T04:36:03;100954.59;;;11.63;100.00
13612;BME280;6877;51.436;6.774;2023-05-12T04:38:30;100957.19;;;11.64;100.00
13612;BME280;6877;51.436;6.774;2023-05-12T04:41:02;100957.19;;;11.64;100.00
13612;BME280;6877;51.436;6.774;2023-05-12T04:43:33;100955.38;;;11.66;100.00
13612;BME280;6877;51.436;6.774;2023-05-12T04:46:05;100964.16;;;11.65;100.00
13612;BME280;6877;51.436;6.774;2023-05-12T04:48:31;100963.19;;;11.69;100.00
13612;BME280;6877;51.436;6.774;2023-05-12T04:50:58;100965.81;;;11.69;100.00
13612;BME280;6877;51.436;6.774;2023-05-12T04:53:26;100966.66;;;11.71;100.00
13612;BME280;6877;51.436;6.774;2023-05-12T04:55:52;100977.16;;;11.71;100.00
13612;BME280;6877;51.436;6.774;2023-05-12T04:58:19;100985.81;;;11.75;100.00
13612;BME280;6877;51.436;6.774;2023-05-12T05:00:45;100990.97;;;11.79;100.00
13612;BME280;6877;51.436;6.774;2023-05-12T05:03:12;100994.53;;;11.77;100.00
13612;BME280;6877;51.436;6.774;2023-05-12T05:05:38;100991.78;;;11.81;100.00
13612;BME280;6877;51.436;6.774;2023-05-12T05:08:05;101006.72;;;11.79;100.00
13612;BME280;6877;51.436;6.774;2023-05-12T05:10:31;100997.88;;;11.83;100.00
13612;BME280;6877;51.436;6.774;2023-05-12T05:12:58;101006.56;;;11.89;100.00
13612;BME280;6877;51.436;6.774;2023-05-12T05:15:24;101015.31;;;11.88;100.00
13612;BME280;6877;51.436;6.774;2023-05-12T05:17:51;101020.53;;;11.89;100.00
13612;BME280;6877;51.436;6.774;2023-05-12T05:20:17;101023.84;;;11.97;100.00
13612;BME280;6877;51.436;6.774;2023-05-12T05:22:44;101022.88;;;12.03;100.00
13612;BME280;6877;51.436;6.774;2023-05-12T05:25:10;101024.53;;;12.07;100.00
13612;BME280;6877;51.436;6.774;2023-05-12T05:27:37;101026.28;;;12.08;100.00
13612;BME280;6877;51.436;6.774;2023-05-12T05:30:07;101034.34;;;11.99;100.00
13612;BME280;6877;51.436;6.774;2023-05-12T05:32:37;101035.09;;;12.04;100.00
13612;BME280;6877;51.436;6.774;2023-05-12T05:35:06;101037.72;;;12.04;100.00
13612;BME280;6877;51.436;6.774;2023-05-12T05:37:33;101043.75;;;12.09;100.00
13612;BME280;6877;51.436;6.774;2023-05-12T05:39:59;101041.03;;;12.14;100.00
13612;BME280;6877;51.436;6.774;2023-05-12T05:42:26;101046.97;;;12.22;100.00
13612;BME280;6877;51.436;6.774;2023-05-12T05:44:52;101047.66;;;12.32;100.00
13612;BME280;6877;51.436;6.774;2023-05-12T05:47:24;101057.16;;;12.37;100.00
13612;BME280;6877;51.436;6.774;2023-05-12T05:49:55;101058.00;;;12.38;100.00
13612;BME280;6877;51.436;6.774;2023-05-12T05:52:21;101067.47;;;12.45;100.00
13612;BME280;6877;51.436;6.774;2023-05-12T05:54:49;101070.88;;;12.50;100.00
13612;BME280;6877;51.436;6.774;2023-05-12T05:57:15;101065.31;;;12.65;100.00
13612;BME280;6877;51.436;6.774;2023-05-12T05:59:42;101067.03;;;12.66;100.00
13612;BME280;6877;51.436;6.774;2023-05-12T06:02:09;101086.84;;;12.81;100.00
13612;BME280;6877;51.436;6.774;2023-05-12T06:04:35;101080.53;;;12.90;100.00
13612;BME280;6877;51.436;6.774;2023-05-12T06:07:01;101077.81;;;12.93;100.00
13612;BME280;6877;51.436;6.774;2023-05-12T06:09:28;101085.06;;;12.82;100.00
13612;BME280;6877;51.436;6.774;2023-05-12T06:11:59;101086.72;;;12.86;100.00
13612;BME280;6877;51.436;6.774;2023-05-12T06:14:26;101080.78;;;12.78;100.00
13612;BME280;6877;51.436;6.774;2023-05-12T06:16:57;101091.09;;;12.87;100.00
13612;BME280;6877;51.436;6.774;2023-05-12T06:19:24;101097.34;;;12.81;100.00
13612;BME280;6877;51.436;6.774;2023-05-12T06:21:50;101092.88;;;12.86;100.00
13612;BME280;6877;51.436;6.774;2023-05-12T06:24:24;101095.09;;;13.03;100.00
13612;BME280;6877;51.436;6.774;2023-05-12T06:26:51;101099.06;;;13.21;100.00
13612;BME280;6877;51.436;6.774;2023-05-12T06:29:17;101100.44;;;13.37;100.00
13612;BME280;6877;51.436;6.774;2023-05-12T06:31:44;101099.09;;;13.55;100.00
13612;BME280;6877;51.436;6.774;2023-05-12T06:34:11;101088.13;;;13.74;100.00
13612;BME280;6877;51.436;6.774;2023-05-12T06:36:37;101104.41;;;13.88;100.00
13612;BME280;6877;51.436;6.774;2023-05-12T06:39:04;101106.34;;;14.14;100.00
13612;BME280;6877;51.436;6.774;2023-05-12T06:41:36;101114.13;;;14.19;100.00
13612;BME280;6877;51.436;6.774;2023-05-12T06:44:02;101109.78;;;14.16;100.00
13612;BME280;6877;51.436;6.774;2023-05-12T06:46:29;101109.03;;;14.12;100.00
13612;BME280;6877;51.436;6.774;2023-05-12T06:48:55;101105.41;;;14.15;100.00
13612;BME280;6877;51.436;6.774;2023-05-12T06:51:22;101114.19;;;14.16;100.00
13612;BME280;6877;51.436;6.774;2023-05-12T06:53:48;101122.97;;;14.14;100.00
13612;BME280;6877;51.436;6.774;2023-05-12T06:56:15;101117.97;;;14.05;100.00
13612;BME280;6877;51.436;6.774;2023-05-12T06:58:42;101113.78;;;13.98;100.00
13612;BME280;6877;51.436;6.774;2023-05-12T07:01:14;101121.00;;;13.90;100.00
13612;BME280;6877;51.436;6.774;2023-05-12T07:03:41;101142.03;;;13.90;100.00
13612;BME280;6877;51.436;6.774;2023-05-12T07:06:07;101127.38;;;13.81;100.00
13612;BME280;6877;51.436;6.774;2023-05-12T07:08:34;101129.25;;;13.78;100.00
13612;BME280;6877;51.436;6.774;2023-05-12T07:11:00;101130.28;;;13.71;100.00
13612;BME280;6877;51.436;6.774;2023-05-12T07:13:32;101138.16;;;13.71;100.00
13612;BME280;6877;51.436;6.774;2023-05-12T07:15:58;101128.56;;;13.70;100.00
13612;BME280;6877;51.436;6.774;2023-05-12T07:18:25;101135.63;;;13.67;100.00
13612;BME280;6877;51.436;6.774;2023-05-12T07:20:52;101138.00;;;13.77;100.00
13612;BME280;6877;51.436;6.774;2023-05-12T07:23:18;101137.94;;;13.80;100.00
13612;BME280;6877;51.436;6.774;2023-05-12T07:25:45;101138.53;;;13.91;100.00
13612;BME280;6877;51.436;6.774;2023-05-12T07:28:16;101141.13;;;13.93;100.00
13612;BME280;6877;51.436;6.774;2023-05-12T07:30:48;101146.28;;;13.97;100.00
13612;BME280;6877;51.436;6.774;2023-05-12T07:33:20;101141.19;;;13.89;100.00
13612;BME280;6877;51.436;6.774;2023-05-12T07:35:46;101155.19;;;13.90;100.00
13612;BME280;6877;51.436;6.774;2023-05-12T07:38:18;101144.59;;;13.93;100.00
13612;BME280;6877;51.436;6.774;2023-05-12T07:40:44;101150.84;;;13.89;100.00
13612;BME280;6877;51.436;6.774;2023-05-12T07:43:11;101155.47;;;13.81;100.00
13612;BME280;6877;51.436;6.774;2023-05-12T07:45:38;101154.56;;;13.80;100.00
13612;BME280;6877;51.436;6.774;2023-05-12T07:48:09;101164.38;;;13.75;100.00
13612;BME280;6877;51.436;6.774;2023-05-12T07:50:36;101168.78;;;13.75;100.00
13612;BME280;6877;51.436;6.774;2023-05-12T07:53:03;101163.66;;;13.68;100.00
13612;BME280;6877;51.436;6.774;2023-05-12T07:55:31;101168.22;;;13.62;100.00
13612;BME280;6877;51.436;6.774;2023-05-12T07:58:00;101170.16;;;13.52;100.00
13612;BME280;6877;51.436;6.774;2023-05-12T08:00:27;101176.28;;;13.54;100.00
13612;BME280;6877;51.436;6.774;2023-05-12T08:02:55;101170.03;;;13.58;100.00
13612;BME280;6877;51.436;6.774;2023-05-12T08:05:26;101183.09;;;13.61;100.00
13612;BME280;6877;51.436;6.774;2023-05-12T08:07:53;101181.00;;;13.76;100.00
13612;BME280;6877;51.436;6.774;2023-05-12T08:10:19;101177.16;;;13.89;100.00
13612;BME280;6877;51.436;6.774;2023-05-12T08:12:46;101186.38;;;14.05;100.00
13612;BME280;6877;51.436;6.774;2023-05-12T08:15:12;101193.16;;;14.16;100.00
13612;BME280;6877;51.436;6.774;2023-05-12T08:17:38;101175.28;;;14.27;100.00
13612;BME280;6877;51.436;6.774;2023-05-12T08:20:05;101179.47;;;14.35;100.00
13612;BME280;6877;51.436;6.774;2023-05-12T08:22:32;101176.69;;;14.40;100.00
13612;BME280;6877;51.436;6.774;2023-05-12T08:24:58;101188.97;;;14.41;100.00
13612;BME280;6877;51.436;6.774;2023-05-12T08:27:25;101186.25;;;14.44;100.00
13612;BME280;6877;51.436;6.774;2023-05-12T08:29:51;101182.69;;;14.45;99.09
13612;BME280;6877;51.436;6.774;2023-05-12T08:32:17;101190.47;;;14.51;98.60
13612;BME280;6877;51.436;6.774;2023-05-12T08:34:44;101190.13;;;14.64;99.53
13612;BME280;6877;51.436;6.774;2023-05-12T08:37:15;101184.41;;;14.79;100.00
13612;BME280;6877;51.436;6.774;2023-05-12T08:39:42;101189.50;;;14.85;100.00
13612;BME280;6877;51.436;6.774;2023-05-12T08:44:39;101199.81;;;14.93;100.00
13612;BME280;6877;51.436;6.774;2023-05-12T08:47:07;101196.84;;;15.03;100.00
13612;BME280;6877;51.436;6.774;2023-05-12T08:49:35;101197.84;;;14.99;96.96
13612;BME280;6877;51.436;6.774;2023-05-12T08:52:04;101209.84;;;15.10;99.02
13612;BME280;6877;51.436;6.774;2023-05-12T08:54:38;101212.19;;;15.20;99.99
13612;BME280;6877;51.436;6.774;2023-05-12T08:57:05;101208.72;;;15.18;95.64
13612;BME280;6877;51.436;6.774;2023-05-12T08:59:35;101220.13;;;15.19;96.67
13612;BME280;6877;51.436;6.774;2023-05-12T09:02:04;101224.63;;;15.15;96.78
13612;BME280;6877;51.436;6.774;2023-05-12T09:04:30;101221.69;;;15.26;95.27
13612;BME280;6877;51.436;6.774;2023-05-12T09:06:58;101216.09;;;15.35;97.50
13612;BME280;6877;51.436;6.774;2023-05-12T09:09:30;101225.63;;;15.69;97.94
13612;BME280;6877;51.436;6.774;2023-05-12T09:12:00;101225.78;;;16.17;99.08
13612;BME280;6877;51.436;6.774;2023-05-12T09:14:30;101225.03;;;16.39;91.84
13612;BME280;6877;51.436;6.774;2023-05-12T09:17:03;101227.22;;;16.78;93.79
13612;BME280;6877;51.436;6.774;2023-05-12T09:19:30;101223.56;;;17.27;90.72
13612;BME280;6877;51.436;6.774;2023-05-12T09:22:02;101233.09;;;17.77;89.41
13612;BME280;6877;51.436;6.774;2023-05-12T09:24:33;101226.69;;;18.03;91.10
13612;BME280;6877;51.436;6.774;2023-05-12T09:27:00;101235.00;;;18.16;90.99
13612;BME280;6877;51.436;6.774;2023-05-12T09:29:26;101236.88;;;17.48;83.20
13612;BME280;6877;51.436;6.774;2023-05-12T09:31:56;101237.44;;;17.34;86.35
13612;BME280;6877;51.436;6.774;2023-05-12T09:34:31;101234.50;;;17.18;86.40
13612;BME280;6877;51.436;6.774;2023-05-12T09:37:01;101236.47;;;17.13;86.45
13612;BME280;6877;51.436;6.774;2023-05-12T09:39:28;101233.06;;;17.09;84.54
13612;BME280;6877;51.436;6.774;2023-05-12T09:41:55;101242.22;;;17.01;83.82
13612;BME280;6877;51.436;6.774;2023-05-12T09:44:22;101228.06;;;17.02;81.24
13612;BME280;6877;51.436;6.774;2023-05-12T09:46:49;101232.50;;;16.78;80.25
13612;BME280;6877;51.436;6.774;2023-05-12T09:49:18;101239.97;;;16.90;80.91
13612;BME280;6877;51.436;6.774;2023-05-12T09:51:44;101230.81;;;16.99;81.68
13612;BME280;6877;51.436;6.774;2023-05-12T09:54:11;101245.38;;;17.10;79.40
13612;BME280;6877;51.436;6.774;2023-05-12T09:56:44;101247.56;;;17.23;79.92
13612;BME280;6877;51.436;6.774;2023-05-12T09:59:11;101243.16;;;17.67;79.21
13612;BME280;6877;51.436;6.774;2023-05-12T10:01:43;101244.81;;;18.14;76.53
13612;BME280;6877;51.436;6.774;2023-05-12T10:04:10;101245.59;;;18.57;82.65
13612;BME280;6877;51.436;6.774;2023-05-12T10:06:40;101244.75;;;18.77;78.42
13612;BME280;6877;51.436;6.774;2023-05-12T10:09:18;101247.13;;;18.83;75.35
13612;BME280;6877;51.436;6.774;2023-05-12T10:11:46;101241.84;;;18.83;75.92
13612;BME280;6877;51.436;6.774;2023-05-12T10:14:13;101248.66;;;19.07;73.45
13612;BME280;6877;51.436;6.774;2023-05-12T10:16:44;101241.97;;;18.80;73.74
13612;BME280;6877;51.436;6.774;2023-05-12T10:19:12;101245.06;;;18.08;73.35
13612;BME280;6877;51.436;6.774;2023-05-12T10:21:41;101249.75;;;18.01;75.89
13612;BME280;6877;51.436;6.774;2023-05-12T10:24:08;101240.84;;;17.81;76.94
13612;BME280;6877;51.436;6.774;2023-05-12T10:26:36;101248.81;;;18.02;79.88
13612;BME280;6877;51.436;6.774;2023-05-12T10:29:02;101253.00;;;18.08;79.00
13612;BME280;6877;51.436;6.774;2023-05-12T10:31:29;101252.19;;;17.85;73.55
13612;BME280;6877;51.436;6.774;2023-05-12T10:34:00;101251.63;;;17.77;74.29
13612;BME280;6877;51.436;6.774;2023-05-12T10:36:27;101248.09;;;17.76;74.01
13612;BME280;6877;51.436;6.774;2023-05-12T10:38:54;101245.75;;;17.69;73.27
13612;BME280;6877;51.436;6.774;2023-05-12T10:41:31;101249.56;;;17.83;72.58
13612;BME280;6877;51.436;6.774;2023-05-12T10:43:58;101253.94;;;18.06;71.25
13612;BME280;6877;51.436;6.774;2023-05-12T10:46:24;101249.97;;;18.17;71.58
13612;BME280;6877;51.436;6.774;2023-05-12T10:48:59;101246.75;;;18.51;71.83
13612;BME280;6877;51.436;6.774;2023-05-12T10:54:04;101244.41;;;18.84;67.94
13612;BME280;6877;51.436;6.774;2023-05-12T11:02:30;101246.00;;;19.45;63.98
13612;BME280;6877;51.436;6.774;2023-05-12T11:05:09;101249.31;;;19.31;64.86
13612;BME280;6877;51.436;6.774;2023-05-12T11:07:36;101245.41;;;19.57;66.04
13612;BME280;6877;51.436;6.774;2023-05-12T11:10:03;101242.31;;;19.85;64.96
13612;BME280;6877;51.436;6.774;2023-05-12T11:12:33;101249.75;;;20.13;62.60
13612;BME280;6877;51.436;6.774;2023-05-12T11:15:04;101248.75;;;20.33;62.52
13612;BME280;6877;51.436;6.774;2023-05-12T11:17:39;101250.00;;;20.94;61.87
13612;BME280;6877;51.436;6.774;2023-05-12T11:20:21;101253.28;;;21.48;57.20
13612;BME280;6877;51.436;6.774;2023-05-12T11:22:48;101255.66;;;21.69;56.77
13612;BME280;6877;51.436;6.774;2023-05-12T11:25:15;101258.56;;;21.80;56.44
13612;BME280;6877;51.436;6.774;2023-05-12T11:27:48;101261.28;;;22.10;56.63
13612;BME280;6877;51.436;6.774;2023-05-12T11:30:18;101254.66;;;22.02;55.18
13612;BME280;6877;51.436;6.774;2023-05-12T11:32:44;101262.47;;;22.05;55.68
13612;BME280;6877;51.436;6.774;2023-05-12T11:35:16;101266.84;;;21.75;56.72
13612;BME280;6877;51.436;6.774;2023-05-12T11:37:43;101257.53;;;21.19;54.22
13612;BME280;6877;51.436;6.774;2023-05-12T11:40:18;101252.84;;;20.91;56.41
13612;BME280;6877;51.436;6.774;2023-05-12T11:42:46;101262.81;;;21.03;58.05
13612;BME280;6877;51.436;6.774;2023-05-12T11:45:21;101252.91;;;20.90;55.68
13612;BME280;6877;51.436;6.774;2023-05-12T11:47:47;101257.75;;;20.66;56.31
13612;BME280;6877;51.436;6.774;2023-05-12T11:50:23;101264.84;;;20.48;56.92
13612;BME280;6877;51.436;6.774;2023-05-12T11:52:52;101261.69;;;20.05;58.14
13612;BME280;6877;51.436;6.774;2023-05-12T11:55:22;101257.13;;;20.08;58.30
13612;BME280;6877;51.436;6.774;2023-05-12T11:57:56;101263.50;;;19.87;59.36
13612;BME280;6877;51.436;6.774;2023-05-12T12:00:33;101260.53;;;20.10;60.34
13612;BME280;6877;51.436;6.774;2023-05-12T12:05:32;101263.84;;;20.16;58.52
13612;BME280;6877;51.436;6.774;2023-05-12T12:08:10;101261.25;;;20.31;58.98
13612;BME280;6877;51.436;6.774;2023-05-12T12:10:44;101271.94;;;20.30;57.93
13612;BME280;6877;51.436;6.774;2023-05-12T12:13:11;101261.31;;;20.30;57.66
13612;BME280;6877;51.436;6.774;2023-05-12T12:15:38;101273.63;;;20.50;60.56
13612;BME280;6877;51.436;6.774;2023-05-12T12:18:04;101277.56;;;20.24;58.44
13612;BME280;6877;51.436;6.774;2023-05-12T12:20:31;101277.97;;;19.99;58.81
13612;BME280;6877;51.436;6.774;2023-05-12T12:22:57;101276.69;;;19.88;60.29
13612;BME280;6877;51.436;6.774;2023-05-12T12:25:24;101274.84;;;19.53;60.33
13612;BME280;6877;51.436;6.774;2023-05-12T12:27:51;101277.13;;;19.41;62.02
13612;BME280;6877;51.436;6.774;2023-05-12T12:30:18;101281.31;;;19.28;61.90
13612;BME280;6877;51.436;6.774;2023-05-12T12:32:44;101279.50;;;19.29;63.09
13612;BME280;6877;51.436;6.774;2023-05-12T12:35:16;101280.34;;;19.48;61.47
13612;BME280;6877;51.436;6.774;2023-05-12T12:37:44;101277.22;;;19.59;61.68
13612;BME280;6877;51.436;6.774;2023-05-12T12:40:17;101279.28;;;19.90;63.92
13612;BME280;6877;51.436;6.774;2023-05-12T12:42:44;101280.78;;;20.13;64.77
13612;BME280;6877;51.436;6.774;2023-05-12T12:45:11;101276.97;;;20.36;62.03
13612;BME280;6877;51.436;6.774;2023-05-12T12:47:38;101286.97;;;20.31;61.84
13612;BME280;6877;51.436;6.774;2023-05-12T12:50:06;101290.56;;;20.30;61.70
13612;BME280;6877;51.436;6.774;2023-05-12T12:52:37;101281.88;;;20.26;61.76
13612;BME280;6877;51.436;6.774;2023-05-12T12:55:05;101290.09;;;20.39;62.08
13612;BME280;6877;51.436;6.774;2023-05-12T12:57:31;101285.09;;;20.16;60.82
13612;BME280;6877;51.436;6.774;2023-05-12T13:00:03;101282.00;;;19.88;60.39
13612;BME280;6877;51.436;6.774;2023-05-12T13:02:30;101274.13;;;19.87;64.22
13612;BME280;6877;51.436;6.774;2023-05-12T13:04:57;101282.41;;;19.98;63.83
13612;BME280;6877;51.436;6.774;2023-05-12T13:07:23;101272.91;;;20.11;61.41
13612;BME280;6877;51.436;6.774;2023-05-12T13:09:50;101268.69;;;20.25;62.04
13612;BME280;6877;51.436;6.774;2023-05-12T13:12:16;101275.88;;;20.40;61.42